Terminal Aerodrome Forecast
Issued by NWS

Home | Current Version | Previous Version | Text Only | Print | Product List | Glossary On
Versions: 1 2 3 4 5 6 7 8 9 10 11 12
073
FTPA31 PHFO 190531
TAFHNY
TAF
PHNY 190531Z 1906/2006 36010KT P6SM FEW025 BKN040
     FM192000 35014G20KT P6SM SCT025 SCT045
     FM200500 02012KT P6SM FEW025 SCT040=

USA.gov is the U.S. government's official web portal to all federal, state and local government web resources and services.